createdAt,value
2019-03-18T00:00:56.398Z,90.07
2019-03-18T00:01:56.395Z,90.16
2019-03-18T00:02:56.401Z,90.16
2019-03-18T00:03:56.408Z,89.97
2019-03-18T00:04:56.412Z,88.65
2019-03-18T00:05:56.422Z,85.25
2019-03-18T00:06:56.417Z,83.93
2019-03-18T00:07:56.424Z,84.12
2019-03-18T00:08:56.427Z,84.22
2019-03-18T00:09:56.438Z,84.59
2019-03-18T00:10:56.442Z,84.69
2019-03-18T00:11:56.445Z,84.88
2019-03-18T00:12:56.453Z,85.25
2019-03-18T00:13:56.459Z,85.25
2019-03-18T00:15:01.257Z,86.01
2019-03-18T00:15:56.469Z,86.10
2019-03-18T00:16:56.473Z,86.19
2019-03-18T00:17:56.473Z,85.39
2019-03-18T00:18:56.478Z,84.97
2019-03-18T00:19:56.485Z,84.69
2019-03-18T00:20:56.492Z,84.88
2019-03-18T00:21:56.493Z,84.69
2019-03-18T00:22:56.498Z,84.59
2019-03-18T00:23:56.507Z,84.97
2019-03-18T00:24:56.513Z,87.71
2019-03-18T00:25:56.513Z,89.40
2019-03-18T00:26:56.516Z,89.50
2019-03-18T00:27:56.524Z,90.35
2019-03-18T00:28:56.532Z,90.82
2019-03-18T00:29:56.531Z,92.14
2019-03-18T00:30:56.536Z,93.37
2019-03-18T00:31:56.547Z,94.41
2019-03-18T00:32:56.545Z,94.32
2019-03-18T00:33:56.557Z,95.07
2019-03-18T00:34:56.561Z,95.92
2019-03-18T00:35:56.563Z,96.39
2019-03-18T00:36:56.596Z,96.11
2019-03-18T00:37:56.573Z,96.39
2019-03-18T00:38:56.575Z,96.58
2019-03-18T00:39:56.583Z,96.39
2019-03-18T00:40:56.587Z,96.39
2019-03-18T00:41:56.594Z,96.77
2019-03-18T00:42:56.593Z,96.77
2019-03-18T00:43:56.604Z,96.77
2019-03-18T00:44:56.608Z,96.39
2019-03-18T00:45:56.611Z,96.77
2019-03-18T00:46:56.616Z,95.17
2019-03-18T00:47:56.626Z,94.13
2019-03-18T00:48:56.624Z,93.09
2019-03-18T00:49:56.628Z,92.05
2019-03-18T00:50:56.647Z,91.30
2019-03-18T00:51:56.638Z,91.49
2019-03-18T00:52:56.638Z,91.67
2019-03-18T00:53:56.654Z,91.67
2019-03-18T00:54:56.648Z,91.77
2019-03-18T00:55:56.654Z,91.30
2019-03-18T00:56:56.663Z,89.88
2019-03-18T00:57:56.668Z,89.03
2019-03-18T00:58:56.666Z,89.22
2019-03-18T00:59:56.675Z,87.33
2019-03-18T01:00:56.679Z,87.14
2019-03-18T01:01:56.683Z,86.76
2019-03-18T01:02:56.701Z,86.86
2019-03-18T01:03:56.692Z,86.76
2019-03-18T01:04:56.698Z,86.67
2019-03-18T01:05:56.699Z,86.67
2019-03-18T01:06:56.703Z,86.67
2019-03-18T01:07:56.709Z,86.19
2019-03-18T01:08:56.713Z,85.53
2019-03-18T01:09:56.717Z,85.91
2019-03-18T01:10:56.721Z,85.16
2019-03-18T01:11:56.743Z,84.03
2019-03-18T01:12:56.731Z,82.89
2019-03-18T01:13:56.739Z,83.36
2019-03-18T01:14:56.739Z,82.70
2019-03-18T01:15:56.747Z,82.80
2019-03-18T01:16:56.752Z,82.89
2019-03-18T01:17:56.757Z,82.32
2019-03-18T01:18:56.782Z,81.95
2019-03-18T01:19:56.767Z,82.42
2019-03-18T01:20:56.767Z,81.76
2019-03-18T01:21:56.773Z,81.48
2019-03-18T01:22:56.776Z,81.67
2019-03-18T01:23:56.785Z,81.85
2019-03-18T01:24:56.784Z,81.76
2019-03-18T01:25:56.794Z,80.25
2019-03-18T01:26:56.797Z,78.74
2019-03-18T01:27:56.797Z,76.66
2019-03-18T01:28:56.807Z,74.68
2019-03-18T01:29:56.811Z,75.15
2019-03-18T01:30:56.814Z,75.71
2019-03-18T01:31:56.818Z,74.96
2019-03-18T01:32:56.818Z,76.47
2019-03-18T01:33:56.825Z,76.57
2019-03-18T01:34:56.827Z,77.00
2019-03-18T01:35:56.835Z,77.56
2019-03-18T01:36:56.839Z,78.04
2019-03-18T01:37:56.844Z,78.60
2019-03-18T01:38:56.847Z,76.81
2019-03-18T01:39:56.853Z,74.83
2019-03-18T01:40:56.857Z,74.07
2019-03-18T01:41:56.856Z,73.22
2019-03-18T01:42:56.863Z,72.47
2019-03-18T01:43:56.869Z,73.32
2019-03-18T01:44:56.875Z,74.36
2019-03-18T01:45:56.879Z,75.49
2019-03-18T01:46:56.878Z,75.87
2019-03-18T01:47:56.884Z,75.87
2019-03-18T01:48:56.896Z,75.11
2019-03-18T01:49:56.892Z,75.68
2019-03-18T01:50:56.897Z,76.72
2019-03-18T01:51:56.897Z,77.00
2019-03-18T01:52:56.902Z,76.72
2019-03-18T01:53:56.905Z,76.34
2019-03-18T01:54:56.912Z,75.68
2019-03-18T01:55:56.911Z,75.78
2019-03-18T01:56:56.915Z,75.78
2019-03-18T01:57:56.927Z,76.90
2019-03-18T01:58:56.929Z,77.00
2019-03-18T01:59:56.931Z,76.53
2019-03-18T02:00:56.933Z,77.09
2019-03-18T02:01:56.935Z,76.81
2019-03-18T02:02:56.938Z,76.43
2019-03-18T02:03:56.951Z,75.59
2019-03-18T02:04:56.946Z,75.21
2019-03-18T02:05:56.957Z,74.55
2019-03-18T02:06:56.957Z,74.45
2019-03-18T02:07:56.960Z,74.55
2019-03-18T02:08:56.961Z,74.55
2019-03-18T02:09:56.967Z,74.64
2019-03-18T02:10:56.974Z,74.92
2019-03-18T02:11:56.978Z,74.92
2019-03-18T02:12:56.977Z,74.36
2019-03-18T02:13:56.981Z,73.79
2019-03-18T02:14:56.990Z,73.22
2019-03-18T02:15:56.993Z,72.09
2019-03-18T02:16:56.994Z,72.56
2019-03-18T02:17:57.000Z,73.13
2019-03-18T02:18:57.004Z,73.79
2019-03-18T02:19:57.006Z,73.98
2019-03-18T02:20:57.015Z,73.03
2019-03-18T02:21:57.013Z,72.00
2019-03-18T02:22:57.018Z,71.72
2019-03-18T02:23:57.027Z,72.09
2019-03-18T02:24:57.026Z,72.19
2019-03-18T02:25:57.030Z,72.75
2019-03-18T02:26:57.031Z,73.32
2019-03-18T02:27:57.035Z,73.88
2019-03-18T02:28:57.037Z,74.45
2019-03-18T02:29:57.050Z,75.30
2019-03-18T02:30:57.051Z,75.68
2019-03-18T02:31:57.053Z,75.11
2019-03-18T02:32:57.057Z,74.92
2019-03-18T02:33:57.057Z,74.64
2019-03-18T02:34:57.061Z,74.36
2019-03-18T02:35:57.070Z,73.88
2019-03-18T02:36:57.072Z,73.79
2019-03-18T02:37:57.075Z,73.51
2019-03-18T02:38:57.088Z,73.22
2019-03-18T02:39:57.079Z,72.75
2019-03-18T02:40:57.087Z,73.03
2019-03-18T02:41:57.091Z,72.47
2019-03-18T02:42:57.093Z,72.28
2019-03-18T02:43:57.092Z,71.53
2019-03-18T02:44:57.097Z,71.15
2019-03-18T02:46:09.400Z,71.06
2019-03-18T02:46:57.109Z,70.77
2019-03-18T02:47:57.118Z,70.49
2019-03-18T02:48:57.117Z,70.30
2019-03-18T02:49:57.113Z,69.92
2019-03-18T02:50:57.122Z,68.79
2019-03-18T02:51:57.127Z,67.00
2019-03-18T02:52:57.178Z,64.92
2019-03-18T02:53:57.135Z,63.70
2019-03-18T02:54:57.134Z,63.51
2019-03-18T02:55:57.142Z,64.54
2019-03-18T02:56:57.144Z,65.48
2019-03-18T02:57:57.147Z,66.05
2019-03-18T02:58:57.150Z,65.86
2019-03-18T02:59:57.161Z,65.67
2019-03-18T03:00:57.156Z,65.48
2019-03-18T03:01:57.161Z,65.48
2019-03-18T03:02:57.169Z,63.89
2019-03-18T03:03:57.170Z,63.70
2019-03-18T03:04:57.172Z,63.22
2019-03-18T03:05:57.175Z,63.51
2019-03-18T03:06:57.186Z,63.98
2019-03-18T03:07:57.181Z,64.86
2019-03-18T03:08:57.185Z,65.42
2019-03-18T03:09:57.191Z,65.99
2019-03-18T03:10:57.194Z,65.99
2019-03-18T03:11:57.201Z,64.58
2019-03-18T03:12:57.206Z,64.20
2019-03-18T03:13:57.207Z,63.26
2019-03-18T03:14:57.209Z,62.88
2019-03-18T03:15:57.217Z,62.88
2019-03-18T03:16:57.234Z,63.26
2019-03-18T03:17:57.220Z,63.82
2019-03-18T03:18:57.226Z,64.76
2019-03-18T03:19:57.234Z,65.71
2019-03-18T03:20:57.237Z,64.48
2019-03-18T03:21:57.242Z,64.01
2019-03-18T03:22:57.248Z,64.11
2019-03-18T03:23:57.249Z,64.20
2019-03-18T03:24:57.249Z,64.11
2019-03-18T03:25:57.259Z,64.67
2019-03-18T03:26:57.262Z,64.76
2019-03-18T03:27:57.263Z,64.86
2019-03-18T03:28:57.266Z,65.42
2019-03-18T03:29:57.278Z,65.99
2019-03-18T03:30:57.282Z,66.94
2019-03-18T03:31:57.283Z,68.26
2019-03-18T03:32:57.284Z,69.11
2019-03-18T03:33:57.303Z,69.20
2019-03-18T03:34:57.298Z,69.49
2019-03-18T03:35:57.293Z,69.39
2019-03-18T03:36:57.301Z,69.86
2019-03-18T03:37:57.304Z,69.77
2019-03-18T03:38:57.308Z,69.58
2019-03-18T03:39:57.311Z,69.01
2019-03-18T03:40:57.317Z,68.23
2019-03-18T03:41:57.328Z,67.38
2019-03-18T03:42:57.328Z,67.38
2019-03-18T03:43:57.338Z,66.81
2019-03-18T03:44:57.342Z,67.85
2019-03-18T03:45:57.342Z,68.04
2019-03-18T03:46:57.345Z,67.57
2019-03-18T03:47:57.347Z,67.57
2019-03-18T03:48:57.348Z,68.32
2019-03-18T03:49:57.355Z,69.26
2019-03-18T03:50:57.362Z,69.83
2019-03-18T03:51:57.364Z,70.30
2019-03-18T03:52:57.369Z,71.81
2019-03-18T03:53:57.381Z,72.66
2019-03-18T03:54:57.375Z,72.85
2019-03-18T03:55:57.378Z,73.79
2019-03-18T03:56:57.382Z,74.07
2019-03-18T03:57:57.390Z,75.40
2019-03-18T03:58:57.403Z,76.43
2019-03-18T03:59:57.424Z,75.96
2019-03-18T04:00:57.402Z,76.90
2019-03-18T04:01:57.413Z,76.25
2019-03-18T04:02:57.414Z,75.21
2019-03-18T04:03:57.416Z,74.74
2019-03-18T04:04:57.414Z,75.49
2019-03-18T04:05:57.420Z,74.74
2019-03-18T04:06:57.426Z,73.98
2019-03-18T04:07:57.432Z,73.60
2019-03-18T04:08:57.439Z,73.32
2019-03-18T04:09:57.437Z,72.75
2019-03-18T04:10:57.445Z,73.60
2019-03-18T04:11:57.442Z,73.55
2019-03-18T04:12:57.453Z,73.41
2019-03-18T04:13:57.478Z,73.22
2019-03-18T04:14:57.460Z,72.94
2019-03-18T04:15:57.576Z,72.66
2019-03-18T04:17:04.269Z,73.22
2019-03-18T04:17:57.472Z,73.45
2019-03-18T04:18:57.475Z,73.22
2019-03-18T04:19:57.474Z,73.69
2019-03-18T04:20:57.483Z,73.69
2019-03-18T04:21:57.490Z,73.13
2019-03-18T04:22:57.487Z,73.41
2019-03-18T04:23:57.492Z,73.22
2019-03-18T04:24:57.508Z,73.13
2019-03-18T04:25:57.501Z,73.32
2019-03-18T04:26:57.508Z,75.87
2019-03-18T04:27:57.514Z,76.72
2019-03-18T04:28:57.515Z,78.60
2019-03-18T04:29:57.516Z,81.24
2019-03-18T04:30:57.538Z,80.87
2019-03-18T04:31:57.558Z,83.14
2019-03-18T04:32:57.530Z,85.59
2019-03-18T04:33:57.531Z,86.72
2019-03-18T04:34:57.545Z,87.66
2019-03-18T04:35:57.542Z,88.60
2019-03-18T04:36:57.544Z,88.79
2019-03-18T04:37:57.568Z,89.83
2019-03-18T04:38:57.552Z,89.93
2019-03-18T04:39:57.557Z,90.31
2019-03-18T04:40:57.562Z,90.50
2019-03-18T04:41:57.565Z,90.50
2019-03-18T04:42:57.570Z,90.02
2019-03-18T04:43:57.579Z,90.50
2019-03-18T04:44:57.580Z,90.31
2019-03-18T04:45:57.579Z,90.50
2019-03-18T04:46:57.627Z,91.06
2019-03-18T04:47:57.593Z,91.44
2019-03-18T04:48:57.593Z,91.53
2019-03-18T04:49:57.597Z,91.44
2019-03-18T04:50:57.598Z,90.87
2019-03-18T04:51:57.602Z,90.87
2019-03-18T04:52:57.615Z,90.50
2019-03-18T04:53:57.623Z,90.40
2019-03-18T04:54:57.624Z,90.59
2019-03-18T04:55:57.623Z,90.59
2019-03-18T04:56:57.623Z,90.68
2019-03-18T04:57:57.625Z,90.87
2019-03-18T04:58:57.628Z,90.40
2019-03-18T04:59:57.638Z,90.50
2019-03-18T05:00:57.635Z,91.44
2019-03-18T05:01:57.645Z,91.72
2019-03-18T05:02:57.644Z,91.72
2019-03-18T05:03:57.650Z,92.19
2019-03-18T05:04:57.656Z,91.91
2019-03-18T05:05:57.655Z,91.63
2019-03-18T05:06:57.660Z,92.47
2019-03-18T05:07:57.663Z,92.95
2019-03-18T05:08:57.675Z,93.13
2019-03-18T05:09:57.671Z,92.95
2019-03-18T05:10:57.695Z,93.70
2019-03-18T05:11:57.681Z,93.89
2019-03-18T05:12:57.680Z,94.36
2019-03-18T05:13:57.785Z,94.55
2019-03-18T05:14:57.688Z,95.03
2019-03-18T05:15:57.693Z,95.03
2019-03-18T05:16:57.695Z,94.46
2019-03-18T05:17:57.704Z,93.89
2019-03-18T05:18:57.704Z,93.42
2019-03-18T05:19:57.706Z,92.85
2019-03-18T05:20:57.711Z,93.13
2019-03-18T05:21:57.720Z,92.66
2019-03-18T05:22:57.724Z,92.38
2019-03-18T05:23:57.722Z,91.44
2019-03-18T05:24:57.728Z,91.53
2019-03-18T05:25:57.795Z,91.63
2019-03-18T05:26:57.835Z,91.44
2019-03-18T05:27:57.746Z,90.97
2019-03-18T05:28:57.739Z,90.59
2019-03-18T05:29:57.748Z,90.12
2019-03-18T05:30:57.749Z,89.27
2019-03-18T05:31:57.749Z,92.76
2019-03-18T05:32:57.758Z,96.44
2019-03-18T05:33:57.761Z,99.99
2019-03-18T05:34:57.767Z,99.99
2019-03-18T05:35:57.767Z,99.99
2019-03-18T05:36:57.771Z,99.99
2019-03-18T05:37:57.772Z,99.99
2019-03-18T05:38:57.775Z,99.99
2019-03-18T05:39:57.778Z,99.99
2019-03-18T05:40:57.881Z,99.99
2019-03-18T05:41:57.793Z,99.99
2019-03-18T05:42:57.790Z,99.99
2019-03-18T05:43:57.795Z,99.99
2019-03-18T05:44:57.799Z,99.99
2019-03-18T05:45:57.808Z,99.99
2019-03-18T05:46:57.802Z,99.99
2019-03-18T05:47:57.812Z,99.99
2019-03-18T05:48:57.810Z,99.99
2019-03-18T05:49:57.813Z,99.99
2019-03-18T05:50:57.823Z,99.99
2019-03-18T05:51:57.843Z,99.99
2019-03-18T05:52:57.828Z,99.99
2019-03-18T05:53:57.832Z,99.99
2019-03-18T05:54:57.840Z,99.99
2019-03-18T05:55:57.835Z,99.99
2019-03-18T05:56:57.835Z,96.25
2019-03-18T05:57:57.838Z,92.66
2019-03-18T05:58:57.846Z,92.00
2019-03-18T05:59:57.848Z,90.50
2019-03-18T06:00:57.847Z,90.12
2019-03-18T06:01:57.852Z,89.93
2019-03-18T06:02:57.867Z,90.21
2019-03-18T06:03:57.858Z,89.83
2019-03-18T06:04:57.864Z,88.89
2019-03-18T06:05:57.867Z,89.08
2019-03-18T06:06:57.872Z,89.74
2019-03-18T06:07:57.880Z,89.17
2019-03-18T06:08:57.874Z,89.45
2019-03-18T06:09:57.876Z,89.36
2019-03-18T06:10:57.885Z,89.27
2019-03-18T06:11:57.884Z,89.64
2019-03-18T06:12:57.890Z,89.55
2019-03-18T06:13:57.892Z,88.98
2019-03-18T06:14:57.899Z,88.32
2019-03-18T06:15:57.901Z,88.51
2019-03-18T06:16:57.898Z,88.23
2019-03-18T06:17:58.002Z,88.32
2019-03-18T06:19:00.131Z,88.42
2019-03-18T06:19:57.910Z,88.70
2019-03-18T06:20:57.917Z,89.36
2019-03-18T06:21:57.920Z,89.64
2019-03-18T06:22:57.931Z,90.87
2019-03-18T06:23:57.927Z,91.53
2019-03-18T06:24:57.926Z,90.21
2019-03-18T06:25:57.933Z,88.89
2019-03-18T06:26:57.934Z,86.82
2019-03-18T06:27:57.938Z,86.15
2019-03-18T06:28:57.943Z,85.68
2019-03-18T06:29:57.949Z,85.49
2019-03-18T06:30:57.950Z,85.02
2019-03-18T06:31:57.960Z,85.02
2019-03-18T06:32:57.955Z,85.11
2019-03-18T06:33:57.960Z,85.68
2019-03-18T06:34:57.962Z,85.77
2019-03-18T06:35:57.970Z,85.68
2019-03-18T06:36:57.968Z,85.59
2019-03-18T06:37:57.973Z,84.83
2019-03-18T06:38:57.982Z,84.45
2019-03-18T06:39:57.983Z,84.64
2019-03-18T06:40:57.982Z,83.61
2019-03-18T06:41:57.987Z,83.51
2019-03-18T06:42:57.991Z,83.14
2019-03-18T06:43:57.997Z,83.04
2019-03-18T06:44:57.999Z,82.47
2019-03-18T06:45:58.003Z,82.19
2019-03-18T06:46:58.002Z,82.47
2019-03-18T06:48:04.787Z,82.85
2019-03-18T06:48:58.013Z,83.61
2019-03-18T06:49:58.017Z,84.08
2019-03-18T06:50:58.018Z,84.17
2019-03-18T06:51:58.033Z,84.17
2019-03-18T06:52:58.027Z,84.08
2019-03-18T06:53:58.025Z,82.95
2019-03-18T06:54:58.030Z,82.19
2019-03-18T06:55:58.037Z,82.47
2019-03-18T06:56:58.040Z,82.00
2019-03-18T06:57:58.040Z,82.28
2019-03-18T06:58:58.049Z,82.28
2019-03-18T06:59:58.050Z,82.00
2019-03-18T07:00:58.053Z,81.72
2019-03-18T07:01:58.057Z,81.34
2019-03-18T07:02:58.065Z,80.77
2019-03-18T07:03:58.067Z,80.63
2019-03-18T07:04:58.069Z,80.11
2019-03-18T07:05:58.072Z,79.55
2019-03-18T07:06:58.080Z,78.60
2019-03-18T07:07:58.083Z,78.70
2019-03-18T07:08:58.080Z,78.70
2019-03-18T07:09:58.089Z,77.80
2019-03-18T07:10:58.095Z,77.98
2019-03-18T07:11:58.094Z,78.08
2019-03-18T07:12:58.095Z,77.89
2019-03-18T07:13:58.104Z,78.36
2019-03-18T07:14:58.106Z,78.74
2019-03-18T07:16:00.143Z,78.45
2019-03-18T07:16:58.110Z,78.55
2019-03-18T07:17:58.119Z,78.70
2019-03-18T07:18:58.124Z,79.11
2019-03-18T07:19:58.128Z,80.06
2019-03-18T07:20:58.130Z,80.30
2019-03-18T07:21:58.131Z,80.34
2019-03-18T07:22:58.134Z,80.25
2019-03-18T07:23:58.148Z,79.68
2019-03-18T07:24:58.245Z,78.70
2019-03-18T07:25:58.217Z,77.85
2019-03-18T07:26:58.151Z,77.94
2019-03-18T07:27:58.158Z,77.66
2019-03-18T07:28:58.161Z,77.80
2019-03-18T07:29:58.164Z,78.08
2019-03-18T07:30:58.171Z,78.23
2019-03-18T07:31:58.173Z,79.21
2019-03-18T07:32:58.176Z,78.83
2019-03-18T07:33:59.857Z,79.21
2019-03-18T07:34:58.185Z,80.06
2019-03-18T07:35:58.193Z,79.78
2019-03-18T07:36:58.194Z,78.92
2019-03-18T07:37:58.195Z,79.02
2019-03-18T07:38:58.197Z,79.40
2019-03-18T07:39:58.208Z,79.40
2019-03-18T07:40:58.216Z,79.49
2019-03-18T07:41:58.213Z,79.11
2019-03-18T07:42:58.217Z,79.59
2019-03-18T07:43:58.218Z,80.63
2019-03-18T07:44:58.221Z,80.25
2019-03-18T07:45:58.226Z,80.15
2019-03-18T07:46:58.244Z,79.68
2019-03-18T07:47:58.235Z,79.87
2019-03-18T07:48:58.241Z,79.87
2019-03-18T07:49:58.246Z,80.72
2019-03-18T07:50:58.246Z,81.20
2019-03-18T07:51:58.255Z,81.48
2019-03-18T07:52:58.253Z,82.00
2019-03-18T07:53:58.258Z,82.19
2019-03-18T07:54:58.265Z,81.91
2019-03-18T07:55:58.269Z,82.19
2019-03-18T07:56:58.269Z,81.95
2019-03-18T07:57:58.286Z,81.57
2019-03-18T07:58:58.285Z,81.48
2019-03-18T07:59:58.282Z,81.76
2019-03-18T08:00:58.438Z,81.29
2019-03-18T08:01:58.290Z,81.48
2019-03-18T08:02:58.294Z,81.01
2019-03-18T08:03:58.303Z,80.34
2019-03-18T08:04:58.307Z,81.20
2019-03-18T08:05:58.332Z,82.04
2019-03-18T08:06:58.310Z,82.04
2019-03-18T08:07:58.314Z,81.85
2019-03-18T08:08:58.318Z,81.95
2019-03-18T08:09:58.322Z,81.29
2019-03-18T08:10:58.325Z,81.01
2019-03-18T08:11:58.330Z,80.25
2019-03-18T08:12:58.337Z,80.06
2019-03-18T08:13:58.341Z,79.59
2019-03-18T08:14:58.344Z,79.68
2019-03-18T08:15:58.351Z,79.59
2019-03-18T08:16:58.353Z,80.72
2019-03-18T08:17:58.354Z,81.38
2019-03-18T08:18:58.363Z,82.14
2019-03-18T08:19:58.364Z,81.57
2019-03-18T08:20:58.370Z,81.20
2019-03-18T08:21:58.377Z,81.20
2019-03-18T08:22:58.375Z,81.20
2019-03-18T08:23:58.385Z,81.48
2019-03-18T08:24:58.387Z,82.51
2019-03-18T08:25:58.393Z,84.12
2019-03-18T08:26:58.396Z,83.36
2019-03-18T08:27:58.399Z,83.65
2019-03-18T08:28:58.402Z,83.17
2019-03-18T08:29:58.409Z,82.99
2019-03-18T08:30:58.411Z,83.59
2019-03-18T08:31:58.421Z,83.40
2019-03-18T08:32:58.420Z,83.22
2019-03-18T08:33:58.426Z,82.80
2019-03-18T08:34:58.434Z,83.36
2019-03-18T08:35:58.441Z,83.65
2019-03-18T08:36:58.440Z,83.22
2019-03-18T08:37:58.444Z,82.28
2019-03-18T08:38:58.452Z,81.23
2019-03-18T08:39:58.459Z,81.42
2019-03-18T08:40:58.463Z,80.10
2019-03-18T08:41:58.469Z,80.76
2019-03-18T08:42:58.474Z,81.33
2019-03-18T08:43:58.479Z,82.28
2019-03-18T08:44:58.477Z,82.18
2019-03-18T08:45:58.487Z,80.57
2019-03-18T08:46:58.486Z,80.19
2019-03-18T08:47:58.497Z,80.57
2019-03-18T08:48:58.498Z,81.52
2019-03-18T08:49:58.506Z,82.32
2019-03-18T08:50:58.511Z,84.12
2019-03-18T08:51:58.514Z,82.70
2019-03-18T08:52:58.519Z,82.80
2019-03-18T08:53:58.521Z,82.84
2019-03-18T08:54:58.528Z,83.59
2019-03-18T08:55:58.535Z,84.07
2019-03-18T08:56:58.537Z,84.35
2019-03-18T08:57:58.544Z,83.40
2019-03-18T08:58:58.548Z,82.75
2019-03-18T08:59:58.557Z,81.23
2019-03-18T09:00:58.558Z,78.97
2019-03-18T09:01:58.564Z,77.40
2019-03-18T09:02:58.568Z,76.93
2019-03-18T09:03:58.578Z,75.32
2019-03-18T09:04:58.622Z,74.19
2019-03-18T09:05:58.590Z,73.52
2019-03-18T09:06:58.590Z,71.92
2019-03-18T09:07:58.600Z,71.54
2019-03-18T09:08:58.611Z,70.59
2019-03-18T09:09:58.612Z,69.84
2019-03-18T09:10:58.615Z,69.93
2019-03-18T09:11:58.622Z,69.65
2019-03-18T09:12:58.625Z,68.33
2019-03-18T09:13:58.629Z,67.38
2019-03-18T09:14:58.644Z,67.19
2019-03-18T09:15:58.643Z,66.91
2019-03-18T09:16:58.652Z,65.68
2019-03-18T09:17:58.673Z,67.00
2019-03-18T09:19:08.038Z,68.42
2019-03-18T09:19:58.663Z,67.85
2019-03-18T09:20:58.671Z,67.03
2019-03-18T09:21:58.676Z,67.13
2019-03-18T09:23:01.359Z,68.46
2019-03-18T09:23:58.689Z,69.49
2019-03-18T09:24:58.694Z,69.31
2019-03-18T09:25:58.697Z,71.30
2019-03-18T09:27:02.747Z,69.12
2019-03-18T09:27:58.713Z,66.72
2019-03-18T09:28:58.719Z,67.10
2019-03-18T09:29:58.724Z,67.00
2019-03-18T09:30:58.728Z,67.10
2019-03-18T09:31:58.734Z,66.53
2019-03-18T09:32:58.748Z,67.29
2019-03-18T09:33:58.748Z,66.91
2019-03-18T09:34:58.753Z,69.02
2019-03-18T09:35:58.761Z,74.32
2019-03-18T09:36:58.764Z,72.24
2019-03-18T09:37:58.769Z,69.97
2019-03-18T09:38:58.778Z,67.45
2019-03-18T09:39:58.785Z,65.47
2019-03-18T09:40:58.789Z,64.23
2019-03-18T09:41:58.794Z,63.01
2019-03-18T09:42:58.803Z,67.64
2019-03-18T09:43:58.807Z,65.56
2019-03-18T09:44:58.823Z,65.75
2019-03-18T09:45:58.829Z,65.28
2019-03-18T09:46:58.838Z,66.79
2019-03-18T09:47:58.843Z,65.09
2019-03-18T09:48:58.842Z,62.06
2019-03-18T09:49:58.849Z,70.57
2019-03-18T09:50:58.858Z,70.01
2019-03-18T09:51:58.867Z,67.83
2019-03-18T09:52:58.874Z,69.06
2019-03-18T09:53:58.878Z,70.39
2019-03-18T09:54:58.885Z,68.96
2019-03-18T09:55:58.893Z,65.50
2019-03-18T09:56:58.901Z,65.88
2019-03-18T09:57:58.903Z,66.73
2019-03-18T09:58:58.915Z,74.49
2019-03-18T09:59:58.918Z,69.66
2019-03-18T10:00:58.928Z,67.07
2019-03-18T10:01:58.935Z,70.76
2019-03-18T10:02:58.941Z,70.12
2019-03-18T10:03:58.947Z,70.12
2019-03-18T10:04:58.952Z,69.18
2019-03-18T10:05:58.963Z,70.78
2019-03-18T10:06:58.968Z,73.37
2019-03-18T10:07:58.978Z,75.23
2019-03-18T10:08:58.981Z,73.47
2019-03-18T10:09:58.988Z,74.79
2019-03-18T10:10:58.997Z,73.28
2019-03-18T10:11:59.003Z,74.13
2019-03-18T10:12:59.010Z,72.99
2019-03-18T10:13:59.016Z,70.63
2019-03-18T10:14:59.023Z,73.75
2019-03-18T10:15:59.033Z,78.20
2019-03-18T10:17:09.015Z,78.99
2019-03-18T10:17:59.048Z,79.98
2019-03-18T10:18:59.051Z,80.74
2019-03-18T10:19:59.056Z,75.91
2019-03-18T10:20:59.066Z,76.19
2019-03-18T10:21:59.070Z,74.68
2019-03-18T10:22:59.079Z,71.36
2019-03-18T10:23:59.091Z,71.65
2019-03-18T10:24:59.091Z,67.58
2019-03-18T10:25:59.099Z,66.16
2019-03-18T10:26:59.110Z,69.57
2019-03-18T10:27:59.117Z,72.03
2019-03-18T10:28:59.126Z,68.96
2019-03-18T10:29:59.128Z,69.44
2019-03-18T10:30:59.136Z,73.13
2019-03-18T10:31:59.143Z,74.87
2019-03-18T10:32:59.148Z,74.58
2019-03-18T10:33:59.156Z,71.33
2019-03-18T10:34:59.165Z,68.55
2019-03-18T10:35:59.174Z,79.79
2019-03-18T10:36:59.180Z,72.41
2019-03-18T10:37:59.243Z,69.44
2019-03-18T10:38:59.194Z,69.34
2019-03-18T10:39:59.206Z,70.67
2019-03-18T10:40:59.794Z,70.39
2019-03-18T10:41:59.218Z,67.17
2019-03-18T10:42:59.220Z,68.02
2019-03-18T10:43:59.227Z,69.15
2019-03-18T10:44:59.234Z,76.00
2019-03-18T10:45:59.243Z,69.44
2019-03-18T10:46:59.250Z,66.94
2019-03-18T10:47:59.256Z,72.75
2019-03-18T10:48:59.273Z,69.25
2019-03-18T10:49:59.272Z,66.79
2019-03-18T10:50:59.275Z,67.13
2019-03-18T10:51:59.313Z,66.28
2019-03-18T10:52:59.288Z,66.09
2019-03-18T10:53:59.300Z,67.51
2019-03-18T10:54:59.314Z,68.84
2019-03-18T10:56:07.862Z,67.03
2019-03-18T10:56:59.315Z,64.96
2019-03-18T10:57:59.327Z,65.34
2019-03-18T10:58:59.332Z,66.47
2019-03-18T11:00:01.216Z,68.49
2019-03-18T11:00:59.339Z,65.94
2019-03-18T11:01:59.350Z,65.75
2019-03-18T11:02:59.375Z,64.11
2019-03-18T11:03:59.359Z,65.02
2019-03-18T11:04:59.367Z,65.05
2019-03-18T11:05:59.375Z,66.47
2019-03-18T11:06:59.384Z,67.22
2019-03-18T11:07:59.386Z,68.65
2019-03-18T11:08:59.395Z,66.94
2019-03-18T11:09:59.398Z,66.09
2019-03-18T11:10:59.402Z,65.68
2019-03-18T11:11:59.407Z,67.29
2019-03-18T11:12:59.418Z,70.44
2019-03-18T11:13:59.424Z,69.78
2019-03-18T11:14:59.433Z,68.17
2019-03-18T11:15:59.435Z,66.28
2019-03-18T11:16:59.442Z,66.09
2019-03-18T11:17:59.450Z,65.62
2019-03-18T11:18:59.452Z,65.43
2019-03-18T11:19:59.455Z,63.26
2019-03-18T11:20:59.463Z,63.26
2019-03-18T11:21:59.470Z,63.04
2019-03-18T11:22:59.477Z,63.79
2019-03-18T11:23:59.483Z,65.40
2019-03-18T11:24:59.488Z,67.57
2019-03-18T11:25:59.496Z,68.14
2019-03-18T11:26:59.499Z,69.09
2019-03-18T11:27:59.508Z,70.06
2019-03-18T11:28:59.511Z,68.74
2019-03-18T11:29:59.516Z,66.75
2019-03-18T11:30:59.523Z,62.88
2019-03-18T11:31:59.532Z,64.99
2019-03-18T11:32:59.535Z,65.66
2019-03-18T11:33:59.539Z,63.01
2019-03-18T11:34:59.550Z,63.35
2019-03-18T11:35:59.554Z,64.48
2019-03-18T11:36:59.555Z,62.78
2019-03-18T11:37:59.563Z,62.88
2019-03-18T11:38:59.570Z,62.40
2019-03-18T11:39:59.573Z,61.27
2019-03-18T11:40:59.580Z,61.52
2019-03-18T11:41:59.587Z,61.90
2019-03-18T11:42:59.595Z,62.50
2019-03-18T11:43:59.597Z,61.74
2019-03-18T11:44:59.670Z,61.46
2019-03-18T11:45:59.609Z,60.99
2019-03-18T11:46:59.617Z,60.89
2019-03-18T11:47:59.625Z,61.15
2019-03-18T11:48:59.626Z,62.18
2019-03-18T11:50:10.431Z,63.04
2019-03-18T11:50:59.652Z,62.75
2019-03-18T11:51:59.648Z,61.61
2019-03-18T11:52:59.654Z,61.33
2019-03-18T11:53:59.659Z,62.56
2019-03-18T11:54:59.665Z,61.71
2019-03-18T11:55:59.671Z,62.47
2019-03-18T11:56:59.675Z,65.02
2019-03-18T11:57:59.678Z,65.68
2019-03-18T11:58:59.688Z,65.30
2019-03-18T11:59:59.691Z,64.54
2019-03-18T12:00:59.700Z,63.04
2019-03-18T12:01:59.705Z,61.43
2019-03-18T12:02:59.706Z,61.61
2019-03-18T12:03:59.714Z,61.52
2019-03-18T12:04:59.719Z,60.77
2019-03-18T12:05:59.725Z,60.96
2019-03-18T12:06:59.729Z,60.20
2019-03-18T12:07:59.734Z,59.82
2019-03-18T12:08:59.744Z,60.77
2019-03-18T12:09:59.748Z,62.88
2019-03-18T12:10:59.754Z,60.30
2019-03-18T12:11:59.756Z,60.14
2019-03-18T12:12:59.780Z,60.33
2019-03-18T12:13:59.768Z,59.22
2019-03-18T12:14:59.776Z,65.31
2019-03-18T12:15:59.780Z,64.77
2019-03-18T12:16:59.784Z,59.53
2019-03-18T12:17:59.795Z,56.60
2019-03-18T12:18:59.803Z,56.70
2019-03-18T12:19:59.804Z,58.02
2019-03-18T12:20:59.810Z,58.30
2019-03-18T12:21:59.817Z,58.78
2019-03-18T12:22:59.825Z,56.38
2019-03-18T12:23:59.827Z,58.59
2019-03-18T12:24:59.838Z,58.78
2019-03-18T12:25:59.842Z,56.76
2019-03-18T12:26:59.846Z,56.57
2019-03-18T12:27:59.860Z,56.38
2019-03-18T12:28:59.862Z,56.20
2019-03-18T12:29:59.865Z,57.99
2019-03-18T12:30:59.876Z,56.85
2019-03-18T12:31:59.879Z,55.50
2019-03-18T12:32:59.888Z,56.45
2019-03-18T12:33:59.895Z,57.77
2019-03-18T12:34:59.895Z,58.44
2019-03-18T12:35:59.903Z,60.07
2019-03-18T12:36:59.913Z,58.37
2019-03-18T12:37:59.913Z,57.42
2019-03-18T12:38:59.924Z,55.91
2019-03-18T12:39:59.928Z,54.65
2019-03-18T12:40:59.933Z,54.08
2019-03-18T12:41:59.956Z,53.52
2019-03-18T12:42:59.950Z,55.79
2019-03-18T12:43:59.952Z,55.85
2019-03-18T12:44:59.959Z,57.68
2019-03-18T12:45:59.967Z,57.58
2019-03-18T12:46:59.970Z,57.49
2019-03-18T12:47:59.979Z,55.19
2019-03-18T12:48:59.992Z,55.94
2019-03-18T12:49:59.987Z,58.22
2019-03-18T12:51:00.033Z,57.46
2019-03-18T12:52:00.001Z,57.18
2019-03-18T12:53:00.009Z,58.78